Time;durP1;ratioP1;P1;durP2;ratioP2;P2;SDS_P1;SDS_P2;PMS_P1;PMS_P2;Temp;Humidity;BMP_temperature;BMP_pressure;BME280_temperature;BME280_humidity;BME280_pressure;Samples;Min_cycle;Max_cycle;Signal;HPM_P1;HPM_P2
2023/05/02 00:01:48;;;;;;;15.55;6.78;;;11.00;99.90;;;;;;5042683;28;20048;-69
2023/05/02 00:04:20;;;;;;;17.73;6.55;;;11.00;99.90;;;;;;5037723;28;20517;-70
2023/05/02 00:06:45;;;;;;;19.38;7.03;;;11.00;99.90;;;;;;5046640;28;20087;-70
2023/05/02 00:09:23;;;;;;;19.92;7.75;;;11.00;99.90;;;;;;5028153;28;20037;-70
2023/05/02 00:11:49;;;;;;;15.60;7.28;;;11.00;99.90;;;;;;5046408;28;20033;-71
2023/05/02 00:14:20;;;;;;;18.73;6.93;;;11.10;99.90;;;;;;5046329;28;20025;-68
2023/05/02 00:16:48;;;;;;;15.35;6.47;;;11.10;99.90;;;;;;5030644;28;20049;-69
2023/05/02 00:19:14;;;;;;;16.98;6.78;;;11.00;99.90;;;;;;5033832;28;20056;-69
2023/05/02 00:21:42;;;;;;;14.70;6.70;;;11.00;99.90;;;;;;5046739;28;20072;-69
2023/05/02 00:24:08;;;;;;;17.80;6.45;;;11.00;99.90;;;;;;5034687;28;20045;-70
2023/05/02 00:26:33;;;;;;;17.63;7.10;;;11.10;99.90;;;;;;5047902;28;20504;-70
2023/05/02 00:29:00;;;;;;;13.65;6.05;;;11.10;99.90;;;;;;5046742;28;20037;-70
2023/05/02 00:31:25;;;;;;;10.63;4.55;;;11.00;99.90;;;;;;5029759;28;20092;-70
2023/05/02 00:33:51;;;;;;;12.52;4.78;;;11.10;99.90;;;;;;5027689;28;20429;-70
2023/05/02 00:36:18;;;;;;;18.73;5.90;;;11.10;99.90;;;;;;5046635;28;20037;-69
2023/05/02 00:38:44;;;;;;;12.88;4.57;;;11.10;99.90;;;;;;5030990;28;20120;-70
2023/05/02 00:41:13;;;;;;;12.80;4.93;;;11.20;99.90;;;;;;5045897;28;20141;-69
2023/05/02 00:43:38;;;;;;;15.88;4.35;;;11.20;99.90;;;;;;5044879;28;20040;-70
2023/05/02 00:46:07;;;;;;;10.48;4.10;;;11.20;99.90;;;;;;5046470;28;20075;-69
2023/05/02 00:48:33;;;;;;;11.75;5.65;;;11.20;99.90;;;;;;5032807;28;20033;-70
2023/05/02 00:51:04;;;;;;;9.88;4.05;;;11.20;99.90;;;;;;5046244;28;20041;-70
2023/05/02 00:53:30;;;;;;;;;;;11.20;99.90;;;;;;5027748;28;20711;-70
2023/05/02 00:56:11;;;;;;;8.80;3.90;;;11.20;99.90;;;;;;5033853;28;19916;-70
2023/05/02 00:58:46;;;;;;;10.57;4.82;;;11.30;99.90;;;;;;5027288;28;20040;-69
2023/05/02 01:01:30;;;;;;;8.32;3.63;;;11.30;99.90;;;;;;5032757;28;20463;-70
2023/05/02 01:03:58;;;;;;;9.88;5.07;;;11.20;99.90;;;;;;5022903;28;20032;-69
2023/05/02 01:06:33;;;;;;;10.02;4.38;;;11.20;99.90;;;;;;5046403;28;20128;-70
2023/05/02 01:09:18;;;;;;;13.27;3.90;;;11.20;99.90;;;;;;5046096;28;20048;-70
2023/05/02 01:12:02;;;;;;;7.90;3.72;;;11.20;99.90;;;;;;5027412;28;20693;-70
2023/05/02 01:14:40;;;;;;;9.55;2.80;;;11.30;99.90;;;;;;5024614;28;20424;-70
2023/05/02 01:17:14;;;;;;;6.65;2.17;;;11.20;99.90;;;;;;5032098;28;20086;-70
2023/05/02 01:19:46;;;;;;;9.82;2.08;;;11.30;99.90;;;;;;5027039;28;20041;-70
2023/05/02 01:22:14;;;;;;;8.65;2.55;;;11.30;99.90;;;;;;5049688;28;20041;-69
2023/05/02 01:25:00;;;;;;;7.38;1.70;;;11.20;99.90;;;;;;5029328;28;20037;-71
2023/05/02 01:28:01;;;;;;;7.72;2.03;;;11.20;99.90;;;;;;5026519;28;20037;-70
2023/05/02 01:30:29;;;;;;;6.30;1.85;;;11.30;99.90;;;;;;5024791;28;20132;-70
2023/05/02 01:32:58;;;;;;;9.18;1.85;;;11.20;99.90;;;;;;5045477;28;20029;-69
2023/05/02 01:35:28;;;;;;;7.65;1.88;;;11.10;99.90;;;;;;5045228;28;20475;-71
2023/05/02 01:38:00;;;;;;;5.07;2.05;;;11.10;99.90;;;;;;5044643;28;20033;-70
2023/05/02 01:40:25;;;;;;;9.25;1.92;;;11.10;99.90;;;;;;5024884;28;20148;-70
2023/05/02 01:42:52;;;;;;;9.70;1.70;;;11.10;99.90;;;;;;5043778;28;20734;-70
2023/05/02 01:45:22;;;;;;;7.45;2.63;;;11.10;99.90;;;;;;5045313;28;20063;-70
2023/05/02 01:47:50;;;;;;;6.35;1.40;;;11.10;99.90;;;;;;5025298;28;20036;-70
2023/05/02 01:50:20;;;;;;;6.97;1.77;;;11.00;99.90;;;;;;5027084;28;20116;-70
2023/05/02 01:52:51;;;;;;;5.20;1.65;;;11.00;99.90;;;;;;5029041;28;20044;-70
2023/05/02 01:55:17;;;;;;;8.07;1.90;;;11.00;99.90;;;;;;5024994;28;20060;-69
2023/05/02 01:57:45;;;;;;;8.68;1.90;;;11.00;99.90;;;;;;5027742;28;20033;-70
2023/05/02 02:00:12;;;;;;;7.47;1.80;;;10.90;99.90;;;;;;5032403;28;20028;-71
2023/05/02 02:02:41;;;;;;;7.18;1.20;;;10.90;99.90;;;;;;5044309;28;20044;-71
2023/05/02 02:05:08;;;;;;;5.55;1.67;;;11.00;99.90;;;;;;5045118;28;20056;-70
2023/05/02 02:07:34;;;;;;;13.73;1.60;;;10.90;99.90;;;;;;5043624;28;20044;-70
2023/05/02 02:10:12;;;;;;;9.85;1.83;;;10.90;99.90;;;;;;5044628;28;20029;-70
2023/05/02 02:12:59;;;;;;;9.38;2.42;;;10.90;99.90;;;;;;5030109;28;20044;-69
2023/05/02 02:15:27;;;;;;;6.47;1.00;;;10.90;99.90;;;;;;5040466;28;20072;-69
2023/05/02 02:18:09;;;;;;;7.28;1.60;;;10.90;99.90;;;;;;5026965;28;20029;-70
2023/05/02 02:20:35;;;;;;;6.38;1.10;;;10.90;99.90;;;;;;5025651;28;20026;-71
2023/05/02 02:23:07;;;;;;;3.53;1.00;;;10.80;99.90;;;;;;5027370;28;20083;-71
2023/05/02 02:25:34;;;;;;;1.38;0.47;;;10.80;99.90;;;;;;5028451;28;20040;-70
2023/05/02 02:28:00;;;;;;;2.65;0.93;;;10.70;99.90;;;;;;5027158;28;20029;-70
2023/05/02 02:30:26;;;;;;;4.78;1.08;;;10.70;99.90;;;;;;5044854;28;20657;-70
2023/05/02 02:32:52;;;;;;;6.05;1.02;;;10.70;99.90;;;;;;5044060;28;20492;-70
2023/05/02 02:35:21;;;;;;;3.17;0.93;;;10.60;99.90;;;;;;5044655;28;20045;-70
2023/05/02 02:38:10;;;;;;;16.23;1.48;;;10.60;99.90;;;;;;5046775;28;20021;-70
2023/05/02 02:41:18;;;;;;;3.03;0.93;;;10.60;99.90;;;;;;5033173;28;20497;-70
2023/05/02 02:44:08;;;;;;;4.70;0.90;;;10.60;99.90;;;;;;5045554;28;20060;-69
2023/05/02 02:46:49;;;;;;;1.45;0.50;;;10.50;99.90;;;;;;5032922;28;20048;-69
2023/05/02 02:49:34;;;;;;;2.63;0.70;;;10.50;99.90;;;;;;5036317;28;20055;-69
2023/05/02 02:52:06;;;;;;;8.57;0.45;;;10.50;99.90;;;;;;5047600;28;20033;-70
2023/05/02 02:54:44;;;;;;;17.35;1.17;;;10.50;99.90;;;;;;5047795;28;20493;-69
2023/05/02 02:57:50;;;;;;;3.75;1.05;;;10.50;99.90;;;;;;5029286;28;20040;-70
2023/05/02 03:00:23;;;;;;;6.40;0.88;;;10.50;99.90;;;;;;5023600;28;20048;-70
2023/05/02 03:02:52;;;;;;;6.30;1.20;;;10.50;99.90;;;;;;5046257;28;20048;-70
2023/05/02 03:05:20;;;;;;;5.07;0.63;;;10.50;99.90;;;;;;5049008;28;20036;-69
2023/05/02 03:07:45;;;;;;;6.68;0.80;;;10.50;99.90;;;;;;5047528;28;20040;-70
2023/05/02 03:10:23;;;;;;;6.53;0.80;;;10.50;99.90;;;;;;5041485;28;20396;-70
2023/05/02 03:12:48;;;;;;;2.83;0.47;;;10.50;99.90;;;;;;5045800;28;20554;-70
2023/05/02 03:15:50;;;;;;;4.57;0.68;;;10.40;99.90;;;;;;5033528;28;20025;-68
2023/05/02 03:18:17;;;;;;;4.07;0.55;;;10.50;99.90;;;;;;5033689;28;20064;-70
2023/05/02 03:20:45;;;;;;;5.90;0.50;;;10.40;99.90;;;;;;5046364;28;20098;-70
2023/05/02 03:23:20;;;;;;;9.63;0.55;;;10.40;99.90;;;;;;5032340;28;20120;-69
2023/05/02 03:25:49;;;;;;;2.75;0.47;;;10.40;99.90;;;;;;5044333;28;20036;-70
2023/05/02 03:28:14;;;;;;;4.90;0.60;;;10.40;99.90;;;;;;5033488;28;20031;-69
2023/05/02 03:30:43;;;;;;;3.58;0.40;;;10.40;99.90;;;;;;5046460;28;20037;-70
2023/05/02 03:33:14;;;;;;;3.38;0.93;;;10.40;99.90;;;;;;5040352;28;20041;-69
2023/05/02 03:35:41;;;;;;;1.90;1.00;;;10.40;99.90;;;;;;5040298;28;20101;-71
2023/05/02 03:38:06;;;;;;;17.48;1.02;;;10.40;99.90;;;;;;5056774;28;20124;-71
2023/05/02 03:40:38;;;;;;;5.82;0.45;;;10.40;99.90;;;;;;5046202;28;20116;-70
2023/05/02 03:43:07;;;;;;;9.38;0.57;;;10.40;99.90;;;;;;5054282;28;20033;-70
2023/05/02 03:45:33;;;;;;;4.65;0.70;;;10.40;99.90;;;;;;5046873;28;20521;-70
2023/05/02 03:47:59;;;;;;;3.45;0.47;;;10.40;99.90;;;;;;5047373;28;20107;-71
2023/05/02 03:50:28;;;;;;;2.03;0.93;;;10.40;99.90;;;;;;5033698;28;20025;-69
2023/05/02 03:52:53;;;;;;;4.35;0.85;;;10.30;99.90;;;;;;5046971;28;20036;-70
2023/05/02 03:55:28;;;;;;;1.25;0.60;;;10.30;99.90;;;;;;5047763;28;20021;-71
2023/05/02 03:57:56;;;;;;;2.67;0.55;;;10.20;99.90;;;;;;5032536;28;20037;-70
2023/05/02 04:00:22;;;;;;;2.10;0.60;;;10.20;99.90;;;;;;5047166;28;20651;-70
2023/05/02 04:02:47;;;;;;;4.40;0.30;;;10.20;99.90;;;;;;5030621;28;20041;-71
2023/05/02 04:05:16;;;;;;;3.78;1.13;;;10.20;99.90;;;;;;5047165;28;20060;-70
2023/05/02 04:07:41;;;;;;;2.58;0.68;;;10.10;99.90;;;;;;5041274;28;20048;-70
2023/05/02 04:10:15;;;;;;;2.55;0.50;;;10.10;99.90;;;;;;5047446;28;20037;-70
2023/05/02 04:12:41;;;;;;;2.45;0.40;;;10.00;99.90;;;;;;5046350;28;20497;-71
2023/05/02 04:15:07;;;;;;;2.53;0.47;;;9.90;99.90;;;;;;5047251;28;20033;-70
2023/05/02 04:17:32;;;;;;;2.95;0.73;;;9.90;99.90;;;;;;5045136;28;20025;-71
2023/05/02 04:20:03;;;;;;;4.85;0.70;;;9.80;99.90;;;;;;5031585;28;20037;-70
2023/05/02 04:22:28;;;;;;;6.40;0.88;;;9.80;99.90;;;;;;5046020;28;20110;-71
2023/05/02 04:24:54;;;;;;;10.05;0.57;;;9.80;99.90;;;;;;5035230;28;20648;-70
2023/05/02 04:27:19;;;;;;;3.97;0.30;;;9.80;99.90;;;;;;5046509;28;20107;-71
2023/05/02 04:29:49;;;;;;;1.67;0.40;;;9.80;99.90;;;;;;5045077;28;20053;-70
2023/05/02 04:32:17;;;;;;;5.63;0.80;;;9.80;99.90;;;;;;5032749;28;20021;-69
2023/05/02 04:34:52;;;;;;;5.78;0.50;;;9.70;99.90;;;;;;5045235;28;20045;-71
2023/05/02 04:37:18;;;;;;;2.05;0.73;;;9.70;99.90;;;;;;5028780;28;20052;-70
2023/05/02 04:39:46;;;;;;;8.23;1.13;;;9.70;99.90;;;;;;5024187;28;20178;-70
2023/05/02 04:42:12;;;;;;;5.63;0.43;;;9.80;99.90;;;;;;5028296;28;20033;-69
2023/05/02 04:44:37;;;;;;;3.10;0.75;;;9.80;99.90;;;;;;5031674;28;20481;-70
2023/05/02 04:47:06;;;;;;;6.10;0.90;;;9.80;99.90;;;;;;5032443;28;20512;-68
2023/05/02 04:49:32;;;;;;;6.07;0.90;;;9.90;99.90;;;;;;5031671;28;20060;-71
2023/05/02 04:52:03;;;;;;;11.15;1.00;;;9.90;99.90;;;;;;5029160;28;20115;-69
2023/05/02 04:54:31;;;;;;;7.90;1.20;;;9.90;99.90;;;;;;5045635;28;20461;-68
2023/05/02 04:57:06;;;;;;;3.85;0.70;;;9.80;99.90;;;;;;5028600;28;20493;-69
2023/05/02 04:59:31;;;;;;;6.53;1.27;;;9.90;99.90;;;;;;5029113;28;20064;-70
2023/05/02 05:02:03;;;;;;;11.68;1.40;;;9.90;99.90;;;;;;5029039;28;20056;-70
2023/05/02 05:04:29;;;;;;;9.70;1.65;;;10.00;99.90;;;;;;5045338;28;20060;-69
2023/05/02 05:06:55;;;;;;;6.97;1.55;;;10.00;99.90;;;;;;5034547;28;20052;-70
2023/05/02 05:09:29;;;;;;;6.07;0.88;;;10.00;99.90;;;;;;5028720;28;20063;-70
2023/05/02 05:11:55;;;;;;;4.72;1.05;;;10.00;99.90;;;;;;5045581;28;20413;-70
2023/05/02 05:14:33;;;;;;;5.20;1.15;;;10.00;99.90;;;;;;5033631;28;20074;-69
2023/05/02 05:16:58;;;;;;;4.70;1.30;;;10.10;99.90;;;;;;5045377;28;20080;-70
2023/05/02 05:19:25;;;;;;;14.88;1.88;;;10.10;99.90;;;;;;5029811;28;20056;-70
2023/05/02 05:21:53;;;;;;;7.75;1.35;;;10.10;99.90;;;;;;5044586;28;20047;-69
2023/05/02 05:24:22;;;;;;;3.80;1.08;;;10.20;99.90;;;;;;5032653;28;20091;-70
2023/05/02 05:26:47;;;;;;;11.63;1.10;;;10.20;99.90;;;;;;5042294;28;20180;-70
2023/05/02 05:29:13;;;;;;;7.95;1.40;;;10.20;99.90;;;;;;5047309;28;20029;-71
2023/05/02 05:31:39;;;;;;;3.42;1.08;;;10.30;99.90;;;;;;5044570;28;20060;-70
2023/05/02 05:34:07;;;;;;;6.38;1.10;;;10.40;99.90;;;;;;5044189;28;20415;-70
2023/05/02 05:36:33;;;;;;;5.65;1.65;;;10.40;99.90;;;;;;5044593;28;20036;-70
2023/05/02 05:38:58;;;;;;;3.97;1.77;;;10.30;99.90;;;;;;5045175;28;20067;-69
2023/05/02 05:41:26;;;;;;;7.38;1.30;;;10.40;99.90;;;;;;5044744;28;20572;-71
2023/05/02 05:43:52;;;;;;;6.13;1.63;;;10.30;99.90;;;;;;5044075;28;20033;-69
2023/05/02 05:46:17;;;;;;;7.22;1.20;;;10.30;99.90;;;;;;5032662;28;20083;-70
2023/05/02 05:48:46;;;;;;;7.13;1.60;;;10.30;99.90;;;;;;5044680;28;20094;-70
2023/05/02 05:51:11;;;;;;;11.40;1.45;;;10.20;99.90;;;;;;5045151;28;20033;-69
2023/05/02 05:53:37;;;;;;;12.77;1.75;;;10.20;99.90;;;;;;5044394;28;20131;-69
2023/05/02 05:56:10;;;;;;;10.90;1.33;;;10.20;99.90;;;;;;5029049;28;20082;-70
2023/05/02 05:58:39;;;;;;;8.07;0.90;;;10.20;99.90;;;;;;5022751;28;20045;-70
2023/05/02 06:01:05;;;;;;;10.27;1.33;;;10.30;99.90;;;;;;5031469;28;20457;-70
2023/05/02 06:03:31;;;;;;;10.98;2.33;;;10.30;99.90;;;;;;5030891;28;20226;-70
2023/05/02 06:05:59;;;;;;;8.15;1.42;;;10.40;99.90;;;;;;5027774;28;20052;-69
2023/05/02 06:08:24;;;;;;;8.00;1.02;;;10.60;99.90;;;;;;5028772;28;20044;-69
2023/05/02 06:10:50;;;;;;;15.95;2.15;;;10.70;99.90;;;;;;5045456;28;20041;-70
2023/05/02 06:13:15;;;;;;;7.25;0.93;;;10.70;99.90;;;;;;5049872;28;20036;-70
2023/05/02 06:15:41;;;;;;;7.18;1.10;;;10.70;99.90;;;;;;5048142;28;20102;-70
2023/05/02 06:18:06;;;;;;;16.60;2.47;;;10.80;99.90;;;;;;5049348;28;20029;-70
2023/05/02 06:20:36;;;;;;;4.53;0.93;;;10.70;99.90;;;;;;5047847;28;20033;-70
2023/05/02 06:23:01;;;;;;;3.38;0.98;;;10.60;99.90;;;;;;5031260;28;20070;-70
2023/05/02 06:25:27;;;;;;;7.72;1.27;;;10.60;99.90;;;;;;5048569;28;20160;-70
2023/05/02 06:27:53;;;;;;;15.25;2.20;;;10.70;99.90;;;;;;5047346;28;20048;-70
2023/05/02 06:30:18;;;;;;;7.22;1.42;;;10.70;99.90;;;;;;5048831;28;20063;-70
2023/05/02 06:32:44;;;;;;;6.53;1.13;;;10.90;99.90;;;;;;5047926;28;20350;-71
2023/05/02 06:35:10;;;;;;;4.35;0.70;;;11.00;99.90;;;;;;5048335;28;20469;-70
2023/05/02 06:37:36;;;;;;;5.80;0.68;;;11.00;99.90;;;;;;5050385;28;20112;-70
2023/05/02 06:40:02;;;;;;;2.95;0.60;;;11.00;99.90;;;;;;5036812;28;20050;-71
2023/05/02 06:42:28;;;;;;;5.72;1.35;;;11.00;99.90;;;;;;5034923;28;20047;-70
2023/05/02 06:44:54;;;;;;;2.67;0.30;;;11.00;99.90;;;;;;5034692;28;20033;-70
2023/05/02 06:47:25;;;;;;;3.63;0.45;;;11.10;99.90;;;;;;5048771;28;20023;-70
2023/05/02 06:49:51;;;;;;;5.75;0.47;;;11.10;99.90;;;;;;5047380;28;20037;-70
2023/05/02 06:52:20;;;;;;;6.45;0.70;;;11.00;99.90;;;;;;5034829;28;20041;-69
2023/05/02 06:54:46;;;;;;;1.35;0.40;;;11.00;99.90;;;;;;5047894;28;20557;-69
2023/05/02 06:57:14;;;;;;;5.88;0.55;;;10.80;99.90;;;;;;5035159;28;20021;-70
2023/05/02 06:59:43;;;;;;;3.60;0.52;;;10.80;99.90;;;;;;5047526;28;20191;-70
2023/05/02 07:02:08;;;;;;;4.15;0.68;;;10.90;99.90;;;;;;5031373;28;20137;-71
2023/05/02 07:04:34;;;;;;;4.57;0.93;;;10.80;99.90;;;;;;5047750;28;20139;-68
2023/05/02 07:06:59;;;;;;;4.20;0.63;;;10.70;99.90;;;;;;5048582;28;20025;-70
2023/05/02 07:09:25;;;;;;;5.65;0.70;;;10.60;99.90;;;;;;5048399;28;20059;-70
2023/05/02 07:11:50;;;;;;;8.10;0.70;;;10.60;99.90;;;;;;5047388;28;20568;-71
2023/05/02 07:14:22;;;;;;;4.90;0.60;;;10.60;99.90;;;;;;5048211;28;20504;-70
2023/05/02 07:16:48;;;;;;;6.82;0.80;;;10.60;99.90;;;;;;5047575;28;20047;-70
2023/05/02 07:19:13;;;;;;;4.10;1.70;;;10.50;99.90;;;;;;5047841;28;20025;-70
2023/05/02 07:21:39;;;;;;;3.88;0.60;;;10.60;99.90;;;;;;5046474;28;20041;-70
2023/05/02 07:24:05;;;;;;;6.22;0.73;;;10.60;99.90;;;;;;5034836;28;20048;-70
2023/05/02 07:26:30;;;;;;;3.35;0.38;;;10.60;99.90;;;;;;5026004;28;20041;-70
2023/05/02 07:28:56;;;;;;;3.90;0.50;;;10.60;99.90;;;;;;5044832;28;20122;-71
2023/05/02 07:31:21;;;;;;;3.28;0.60;;;10.60;99.90;;;;;;5047782;28;20065;-70
2023/05/02 07:33:47;;;;;;;3.28;0.40;;;10.70;99.90;;;;;;5046036;28;20021;-70
2023/05/02 07:36:12;;;;;;;2.67;0.40;;;10.80;99.90;;;;;;5047451;28;20033;-69
2023/05/02 07:38:38;;;;;;;2.83;0.40;;;10.90;99.90;;;;;;5046065;28;20036;-69
2023/05/02 07:41:12;;;;;;;2.85;0.68;;;11.10;99.90;;;;;;5047075;28;20099;-70
2023/05/02 07:43:37;;;;;;;1.08;0.40;;;11.20;99.90;;;;;;5047000;28;20049;-69
2023/05/02 07:46:04;;;;;;;2.63;0.40;;;11.20;99.90;;;;;;5031024;28;20353;-69
2023/05/02 07:48:30;;;;;;;2.65;0.55;;;11.20;99.90;;;;;;5028736;28;20085;-69
2023/05/02 07:51:04;;;;;;;2.03;0.30;;;11.30;99.90;;;;;;5047235;28;20040;-70
2023/05/02 07:53:29;;;;;;;3.08;0.52;;;11.50;99.90;;;;;;5028318;28;20139;-71
2023/05/02 07:55:55;;;;;;;3.08;1.02;;;11.80;99.90;;;;;;5026304;28;20537;-69
2023/05/02 07:58:23;;;;;;;0.93;0.45;;;11.90;99.90;;;;;;5044234;28;20366;-69
2023/05/02 08:00:49;;;;;;;4.28;0.60;;;11.90;99.90;;;;;;5046298;28;20053;-70
2023/05/02 08:03:21;;;;;;;5.03;0.55;;;11.80;99.90;;;;;;5047565;28;20040;-71
2023/05/02 08:05:46;;;;;;;2.53;0.40;;;11.70;99.90;;;;;;5046391;28;20052;-69
2023/05/02 08:08:12;;;;;;;1.30;0.30;;;11.40;99.90;;;;;;5032588;28;20025;-70
2023/05/02 08:10:37;;;;;;;3.08;0.50;;;11.40;99.90;;;;;;5046079;28;20049;-69
2023/05/02 08:13:03;;;;;;;4.28;0.60;;;11.40;99.90;;;;;;5049687;28;20116;-69
2023/05/02 08:15:29;;;;;;;2.50;0.60;;;11.50;99.90;;;;;;5036013;28;20056;-71
2023/05/02 08:17:58;;;;;;;1.67;0.22;;;11.70;99.90;;;;;;5046822;28;20032;-70
2023/05/02 08:20:33;;;;;;;1.85;0.47;;;12.00;99.90;;;;;;5046664;28;20512;-70
2023/05/02 08:23:01;;;;;;;6.22;0.63;;;12.20;99.90;;;;;;5043293;28;20135;-70
2023/05/02 08:25:33;;;;;;;3.05;0.73;;;12.20;99.90;;;;;;5030009;28;20041;-71
2023/05/02 08:27:58;;;;;;;5.68;0.93;;;12.00;99.90;;;;;;5043680;28;20297;-69
2023/05/02 08:30:30;;;;;;;4.78;1.40;;;11.70;99.90;;;;;;5046649;28;20036;-70
2023/05/02 08:33:01;;;;;;;3.60;0.52;;;11.60;99.90;;;;;;5029252;28;20044;-70
2023/05/02 08:35:30;;;;;;;3.92;0.45;;;11.60;99.90;;;;;;5041853;28;20040;-69
2023/05/02 08:37:55;;;;;;;3.42;0.38;;;11.70;99.90;;;;;;5045766;28;20457;-70
2023/05/02 08:40:21;;;;;;;4.70;0.77;;;11.70;99.90;;;;;;5046067;28;20063;-69
2023/05/02 08:42:51;;;;;;;1.88;0.38;;;11.70;99.90;;;;;;5045960;28;20064;-70
2023/05/02 08:45:19;;;;;;;4.22;0.80;;;11.80;99.90;;;;;;5046642;28;20098;-71
2023/05/02 08:47:46;;;;;;;2.95;0.60;;;11.90;99.90;;;;;;5045481;28;20374;-69
2023/05/02 08:50:17;;;;;;;1.85;0.40;;;11.80;99.90;;;;;;5029383;28;20512;-70
2023/05/02 08:52:47;;;;;;;1.73;0.40;;;11.90;99.90;;;;;;5032510;28;20045;-70
2023/05/02 08:55:26;;;;;;;3.60;0.30;;;12.10;99.90;;;;;;5088548;27;20393;-70
2023/05/02 08:57:56;;;;;;;3.63;0.57;;;12.40;99.90;;;;;;5076910;28;20024;-70
2023/05/02 09:00:21;;;;;;;2.47;0.50;;;12.80;99.90;;;;;;5090713;28;20121;-70
2023/05/02 09:03:15;;;;;;;2.88;0.52;;;13.20;98.90;;;;;;5101561;28;20119;-70
2023/05/02 09:05:41;;;;;;;0.70;0.30;;;13.60;98.70;;;;;;5101636;28;20492;-70
2023/05/02 09:08:07;;;;;;;1.83;0.30;;;13.70;96.90;;;;;;5103981;28;20043;-71
2023/05/02 09:10:39;;;;;;;0.45;0.20;;;13.70;95.90;;;;;;5101236;28;20495;-70
2023/05/02 09:13:28;;;;;;;3.33;0.35;;;13.40;96.10;;;;;;5101312;28;20020;-69
2023/05/02 09:16:05;;;;;;;2.97;0.35;;;13.60;96.70;;;;;;5106305;28;20076;-69
2023/05/02 09:18:36;;;;;;;0.85;0.25;;;13.50;96.50;;;;;;5104023;27;20038;-71
2023/05/02 09:21:07;;;;;;;2.15;0.30;;;13.80;96.90;;;;;;5110971;27;20034;-72
2023/05/02 09:23:52;;;;;;;4.60;0.70;;;14.10;96.60;;;;;;5105168;28;20035;-70
2023/05/02 09:26:33;;;;;;;0.65;0.10;;;14.30;95.00;;;;;;5111347;28;20040;-70
2023/05/02 09:29:03;;;;;;;2.92;1.08;;;14.30;95.60;;;;;;5101907;28;20028;-70
2023/05/02 09:31:40;;;;;;;1.27;0.68;;;14.80;94.60;;;;;;5102768;28;20099;-72
2023/05/02 09:34:16;;;;;;;2.00;0.50;;;15.00;93.80;;;;;;5100472;28;20419;-70
2023/05/02 09:36:52;;;;;;;5.13;0.98;;;15.00;94.10;;;;;;5105155;28;20059;-71
2023/05/02 09:39:28;;;;;;;3.70;0.45;;;14.80;94.20;;;;;;5105312;28;20032;-70
2023/05/02 09:41:54;;;;;;;7.07;0.47;;;14.50;93.80;;;;;;5105019;27;20051;-69
2023/05/02 09:44:21;;;;;;;4.97;0.30;;;14.30;94.30;;;;;;5102827;28;20046;-71
2023/05/02 09:46:56;;;;;;;3.80;0.57;;;14.20;94.80;;;;;;5106072;28;20101;-71
2023/05/02 09:49:41;;;;;;;4.25;0.55;;;13.90;94.00;;;;;;5103141;28;20296;-70
2023/05/02 09:52:12;;;;;;;3.78;0.50;;;13.70;94.30;;;;;;5103819;28;20032;-69
2023/05/02 09:54:37;;;;;;;3.50;0.50;;;13.50;94.40;;;;;;5104239;27;20070;-70
2023/05/02 09:57:03;;;;;;;3.50;0.40;;;13.60;94.30;;;;;;5105871;28;20044;-71
2023/05/02 09:59:29;;;;;;;4.63;0.47;;;13.50;93.80;;;;;;5106096;28;20035;-71
2023/05/02 10:01:59;;;;;;;2.03;0.52;;;13.40;93.90;;;;;;5114587;27;20037;-71
2023/05/02 10:04:30;;;;;;;5.85;0.60;;;13.30;94.60;;;;;;5093491;28;20101;-70
2023/05/02 10:06:57;;;;;;;3.72;0.52;;;13.30;94.60;;;;;;5091513;28;20487;-70
2023/05/02 10:09:25;;;;;;;1.65;0.47;;;13.50;94.90;;;;;;5091542;28;20093;-70
2023/05/02 10:11:53;;;;;;;3.83;0.55;;;13.90;95.40;;;;;;5088602;28;20171;-69
2023/05/02 10:14:24;;;;;;;1.63;0.32;;;14.20;92.50;;;;;;5090996;28;20039;-70
2023/05/02 10:17:00;;;;;;;2.35;0.43;;;14.00;92.80;;;;;;5085073;28;20135;-71
2023/05/02 10:19:51;;;;;;;2.60;0.80;;;13.70;93.20;;;;;;5088295;28;20686;-70
2023/05/02 10:22:24;;;;;;;6.03;0.55;;;13.80;93.10;;;;;;5119607;27;20036;-70
2023/05/02 10:24:51;;;;;;;3.97;0.50;;;13.80;93.30;;;;;;5090190;28;21498;-69
2023/05/02 10:27:23;;;;;;;2.83;0.40;;;13.90;93.20;;;;;;5090889;28;20114;-70
2023/05/02 10:29:50;;;;;;;2.80;0.35;;;13.90;92.90;;;;;;5081363;28;20035;-69
2023/05/02 10:32:17;;;;;;;2.92;0.40;;;13.80;92.90;;;;;;5090505;28;20032;-69
2023/05/02 10:34:47;;;;;;;1.75;0.55;;;13.80;93.70;;;;;;5093009;28;20043;-71
2023/05/02 10:37:17;;;;;;;4.47;0.60;;;13.80;93.90;;;;;;5091547;28;20028;-70
2023/05/02 10:39:42;;;;;;;8.53;0.97;;;13.80;93.20;;;;;;5090032;28;20036;-69
2023/05/02 10:42:09;;;;;;;5.00;0.45;;;13.60;93.60;;;;;;5089452;28;20032;-70
2023/05/02 10:44:36;;;;;;;4.72;0.68;;;13.70;93.60;;;;;;5085644;28;20024;-70
2023/05/02 10:47:25;;;;;;;2.63;0.88;;;13.70;93.10;;;;;;5094211;28;20028;-69
2023/05/02 10:49:53;;;;;;;1.23;0.50;;;14.00;93.70;;;;;;5088535;28;20043;-70
2023/05/02 10:52:26;;;;;;;3.67;0.50;;;14.00;92.70;;;;;;5087593;28;20663;-70
2023/05/02 10:55:12;;;;;;;5.97;0.63;;;13.90;92.80;;;;;;5089774;28;20044;-69
2023/05/02 10:57:59;;;;;;;2.67;0.57;;;14.00;93.30;;;;;;5090625;28;20185;-70
2023/05/02 11:00:29;;;;;;;1.08;0.50;;;13.70;91.90;;;;;;5089019;28;20024;-70
2023/05/02 11:02:55;;;;;;;;;;;13.80;92.70;;;;;;5093025;28;20396;-69
2023/05/02 11:05:25;;;;;;;4.80;0.93;;;14.00;93.40;;;;;;5093453;28;20033;-71
2023/05/02 11:08:13;;;;;;;16.40;1.00;;;14.00;92.40;;;;;;5094696;28;20065;-71
2023/05/02 11:10:39;;;;;;;5.53;1.63;;;13.70;92.40;;;;;;5078104;28;20089;-70
2023/05/02 11:13:05;;;;;;;4.45;0.55;;;13.50;92.50;;;;;;5085704;28;20548;-71
2023/05/02 11:15:37;;;;;;;2.70;0.68;;;13.50;93.20;;;;;;5087507;28;20024;-71
2023/05/02 11:18:11;;;;;;;3.28;0.47;;;13.70;93.30;;;;;;5093318;28;20530;-71
2023/05/02 11:20:44;;;;;;;2.30;0.82;;;13.90;93.00;;;;;;5086687;28;20035;-69
2023/05/02 11:23:12;;;;;;;5.60;0.63;;;14.00;92.20;;;;;;5096230;28;20047;-71
2023/05/02 11:25:42;;;;;;;2.65;0.40;;;13.90;92.70;;;;;;5086787;28;20036;-70
2023/05/02 11:28:36;;;;;;;3.15;0.88;;;13.90;93.00;;;;;;5088465;28;20028;-70
2023/05/02 11:31:03;;;;;;;2.80;0.50;;;13.60;93.00;;;;;;5086724;28;20035;-70
2023/05/02 11:33:29;;;;;;;5.13;0.70;;;13.50;92.50;;;;;;5089675;28;20031;-70
2023/05/02 11:35:57;;;;;;;3.35;0.90;;;13.40;93.00;;;;;;5090486;28;20058;-70
2023/05/02 11:38:24;;;;;;;3.25;0.45;;;13.40;93.50;;;;;;5086061;28;20400;-70
2023/05/02 11:40:57;;;;;;;4.65;0.75;;;13.60;94.10;;;;;;5084322;28;20111;-69
2023/05/02 11:43:25;;;;;;;3.08;0.80;;;13.80;93.70;;;;;;5093766;28;20036;-69
2023/05/02 11:45:52;;;;;;;7.28;1.13;;;13.90;93.00;;;;;;5086940;28;20119;-70
2023/05/02 11:48:21;;;;;;;4.72;1.05;;;13.90;92.60;;;;;;5090615;28;20093;-69
2023/05/02 11:50:50;;;;;;;6.45;0.65;;;13.80;92.30;;;;;;5095938;27;20105;-71
2023/05/02 11:53:18;;;;;;;4.38;1.20;;;13.70;92.50;;;;;;5097906;28;20060;-69
2023/05/02 11:56:03;;;;;;;8.10;1.25;;;13.50;92.40;;;;;;5089671;28;20416;-71
2023/05/02 11:58:31;;;;;;;5.05;0.85;;;13.50;92.30;;;;;;5093770;28;20579;-71
2023/05/02 12:00:58;;;;;;;1.65;0.60;;;13.30;92.10;;;;;;5091704;28;20035;-69
2023/05/02 12:03:32;;;;;;;3.85;0.88;;;12.90;92.80;;;;;;5097249;28;20104;-71
2023/05/02 12:06:13;;;;;;;3.55;0.70;;;12.90;93.90;;;;;;5093721;28;20036;-69
2023/05/02 12:08:39;;;;;;;2.75;0.80;;;13.00;92.90;;;;;;5098514;28;20732;-70
2023/05/02 12:11:06;;;;;;;4.03;0.90;;;13.10;93.40;;;;;;5087791;28;20085;-70
2023/05/02 12:13:31;;;;;;;10.65;1.48;;;13.20;92.60;;;;;;5094943;28;20459;-70
2023/05/02 12:16:01;;;;;;;4.18;0.95;;;13.20;92.90;;;;;;5093390;28;20051;-70
2023/05/02 12:18:26;;;;;;;2.67;0.95;;;13.20;92.80;;;;;;5097040;28;20038;-70
2023/05/02 12:20:54;;;;;;;7.28;0.90;;;13.30;92.80;;;;;;5089214;28;20027;-69
2023/05/02 12:23:21;;;;;;;5.03;1.15;;;13.30;92.60;;;;;;5098439;28;20028;-69
2023/05/02 12:25:47;;;;;;;5.65;0.80;;;13.10;92.80;;;;;;5090596;28;20058;-72
2023/05/02 12:28:17;;;;;;;9.63;1.10;;;13.00;93.00;;;;;;5092072;28;20032;-70
2023/05/02 12:30:45;;;;;;;4.47;1.23;;;12.90;93.20;;;;;;5086557;28;20435;-70
2023/05/02 12:33:11;;;;;;;4.95;1.45;;;12.90;93.60;;;;;;5085844;28;20039;-70
2023/05/02 12:35:37;;;;;;;5.05;0.73;;;13.10;93.70;;;;;;5090912;28;20032;-70
2023/05/02 12:38:19;;;;;;;4.78;0.88;;;13.30;92.80;;;;;;5089901;28;20055;-70
2023/05/02 12:40:52;;;;;;;5.05;0.80;;;13.40;93.00;;;;;;5081981;28;20102;-69
2023/05/02 12:43:20;;;;;;;9.95;1.20;;;13.40;92.50;;;;;;5088029;28;20112;-70
2023/05/02 12:45:52;;;;;;;7.20;1.08;;;13.30;92.70;;;;;;5092790;28;20034;-69
2023/05/02 12:48:20;;;;;;;3.65;1.00;;;13.00;92.30;;;;;;5090421;28;20376;-70
2023/05/02 12:50:47;;;;;;;5.25;0.82;;;12.90;92.40;;;;;;5090921;28;20028;-70
2023/05/02 12:53:15;;;;;;;1.95;0.70;;;12.80;92.80;;;;;;5092354;28;20173;-70
2023/05/02 12:55:41;;;;;;;3.58;1.00;;;12.90;93.30;;;;;;5092865;28;20016;-69
2023/05/02 12:58:14;;;;;;;5.90;1.08;;;12.80;93.10;;;;;;5097764;28;20122;-70
2023/05/02 13:00:41;;;;;;;7.25;0.98;;;12.80;93.00;;;;;;5091120;28;20774;-70